sensor_id;sensor_type;location;lat;lon;timestamp;P1;durP1;ratioP1;P2;durP2;ratioP2
9964;SDS011;5023;53.554;9.964;2023-06-19T00:01:46;6.80;;;6.20;;
9964;SDS011;5023;53.554;9.964;2023-06-19T00:06:47;6.57;;;6.07;;
9964;SDS011;5023;53.554;9.964;2023-06-19T00:11:49;7.22;;;6.35;;
9964;SDS011;5023;53.554;9.964;2023-06-19T00:16:53;8.50;;;7.78;;
9964;SDS011;5023;53.554;9.964;2023-06-19T00:21:55;7.55;;;6.95;;
9964;SDS011;5023;53.554;9.964;2023-06-19T00:26:57;7.53;;;6.93;;
9964;SDS011;5023;53.554;9.964;2023-06-19T00:32:04;7.78;;;7.07;;
9964;SDS011;5023;53.554;9.964;2023-06-19T00:37:06;7.90;;;7.13;;
9964;SDS011;5023;53.554;9.964;2023-06-19T00:42:08;7.50;;;6.90;;
9964;SDS011;5023;53.554;9.964;2023-06-19T00:47:12;7.35;;;6.72;;
9964;SDS011;5023;53.554;9.964;2023-06-19T00:52:14;7.28;;;6.60;;
9964;SDS011;5023;53.554;9.964;2023-06-19T00:57:17;8.55;;;7.50;;
9964;SDS011;5023;53.554;9.964;2023-06-19T01:02:20;7.90;;;7.20;;
9964;SDS011;5023;53.554;9.964;2023-06-19T01:07:27;7.90;;;7.10;;
9964;SDS011;5023;53.554;9.964;2023-06-19T01:12:33;8.13;;;7.40;;
9964;SDS011;5023;53.554;9.964;2023-06-19T01:17:39;7.47;;;6.88;;
9964;SDS011;5023;53.554;9.964;2023-06-19T01:22:43;8.40;;;7.60;;
9964;SDS011;5023;53.554;9.964;2023-06-19T01:27:45;7.63;;;7.03;;
9964;SDS011;5023;53.554;9.964;2023-06-19T01:32:50;7.57;;;6.90;;
9964;SDS011;5023;53.554;9.964;2023-06-19T01:37:57;8.32;;;7.63;;
9964;SDS011;5023;53.554;9.964;2023-06-19T01:43:00;7.78;;;7.18;;
9964;SDS011;5023;53.554;9.964;2023-06-19T01:48:04;9.13;;;7.28;;
9964;SDS011;5023;53.554;9.964;2023-06-19T01:53:07;7.68;;;7.07;;
9964;SDS011;5023;53.554;9.964;2023-06-19T01:58:09;8.27;;;7.50;;
9964;SDS011;5023;53.554;9.964;2023-06-19T02:03:11;7.95;;;7.22;;
9964;SDS011;5023;53.554;9.964;2023-06-19T02:08:14;8.35;;;7.65;;
9964;SDS011;5023;53.554;9.964;2023-06-19T02:13:16;8.82;;;8.13;;
9964;SDS011;5023;53.554;9.964;2023-06-19T02:18:18;8.85;;;7.97;;
9964;SDS011;5023;53.554;9.964;2023-06-19T02:23:21;8.50;;;7.70;;
9964;SDS011;5023;53.554;9.964;2023-06-19T02:28:23;8.80;;;8.10;;
9964;SDS011;5023;53.554;9.964;2023-06-19T02:33:25;8.32;;;7.63;;
9964;SDS011;5023;53.554;9.964;2023-06-19T02:38:28;8.60;;;7.80;;
9964;SDS011;5023;53.554;9.964;2023-06-19T02:43:30;9.05;;;8.25;;
9964;SDS011;5023;53.554;9.964;2023-06-19T02:48:32;9.10;;;8.40;;
9964;SDS011;5023;53.554;9.964;2023-06-19T02:53:35;9.20;;;8.32;;
9964;SDS011;5023;53.554;9.964;2023-06-19T02:58:37;9.25;;;8.55;;
9964;SDS011;5023;53.554;9.964;2023-06-19T03:03:39;9.15;;;8.35;;
9964;SDS011;5023;53.554;9.964;2023-06-19T03:08:42;9.50;;;8.60;;
9964;SDS011;5023;53.554;9.964;2023-06-19T03:13:46;8.95;;;8.05;;
9964;SDS011;5023;53.554;9.964;2023-06-19T03:18:48;9.40;;;8.70;;
9964;SDS011;5023;53.554;9.964;2023-06-19T03:23:52;9.60;;;8.80;;
9964;SDS011;5023;53.554;9.964;2023-06-19T03:28:54;9.95;;;9.13;;
9964;SDS011;5023;53.554;9.964;2023-06-19T03:33:56;9.70;;;8.80;;
9964;SDS011;5023;53.554;9.964;2023-06-19T03:38:59;10.38;;;9.52;;
9964;SDS011;5023;53.554;9.964;2023-06-19T03:44:01;9.45;;;8.75;;
9964;SDS011;5023;53.554;9.964;2023-06-19T03:49:03;9.90;;;8.95;;
9964;SDS011;5023;53.554;9.964;2023-06-19T03:54:07;9.68;;;8.98;;
9964;SDS011;5023;53.554;9.964;2023-06-19T03:59:09;10.18;;;9.13;;
9964;SDS011;5023;53.554;9.964;2023-06-19T04:04:11;11.07;;;9.73;;
9964;SDS011;5023;53.554;9.964;2023-06-19T04:09:14;10.43;;;9.43;;
9964;SDS011;5023;53.554;9.964;2023-06-19T04:14:16;11.25;;;10.25;;
9964;SDS011;5023;53.554;9.964;2023-06-19T04:19:18;10.50;;;8.85;;
9964;SDS011;5023;53.554;9.964;2023-06-19T04:24:21;9.90;;;9.10;;
9964;SDS011;5023;53.554;9.964;2023-06-19T04:29:23;9.82;;;9.02;;
9964;SDS011;5023;53.554;9.964;2023-06-19T04:34:25;10.10;;;9.30;;
9964;SDS011;5023;53.554;9.964;2023-06-19T04:39:29;10.63;;;9.68;;
9964;SDS011;5023;53.554;9.964;2023-06-19T04:44:30;11.07;;;10.07;;
9964;SDS011;5023;53.554;9.964;2023-06-19T04:49:33;11.32;;;9.23;;
9964;SDS011;5023;53.554;9.964;2023-06-19T04:54:37;14.98;;;13.63;;
9964;SDS011;5023;53.554;9.964;2023-06-19T04:59:39;10.18;;;9.40;;
9964;SDS011;5023;53.554;9.964;2023-06-19T05:04:40;10.50;;;9.60;;
9964;SDS011;5023;53.554;9.964;2023-06-19T05:09:45;12.30;;;11.20;;
9964;SDS011;5023;53.554;9.964;2023-06-19T05:14:49;14.68;;;11.90;;
9964;SDS011;5023;53.554;9.964;2023-06-19T05:19:51;11.75;;;10.50;;
9964;SDS011;5023;53.554;9.964;2023-06-19T05:24:54;11.10;;;10.05;;
9964;SDS011;5023;53.554;9.964;2023-06-19T05:29:56;11.50;;;10.50;;
9964;SDS011;5023;53.554;9.964;2023-06-19T05:34:58;10.48;;;9.48;;
9964;SDS011;5023;53.554;9.964;2023-06-19T05:40:03;10.88;;;9.98;;
9964;SDS011;5023;53.554;9.964;2023-06-19T05:45:06;10.90;;;10.00;;
9964;SDS011;5023;53.554;9.964;2023-06-19T05:50:09;12.90;;;11.70;;
9964;SDS011;5023;53.554;9.964;2023-06-19T05:55:13;12.07;;;10.80;;
9964;SDS011;5023;53.554;9.964;2023-06-19T06:00:15;11.70;;;10.68;;
9964;SDS011;5023;53.554;9.964;2023-06-19T06:05:18;12.52;;;11.35;;
9964;SDS011;5023;53.554;9.964;2023-06-19T06:10:22;11.93;;;10.93;;
9964;SDS011;5023;53.554;9.964;2023-06-19T06:15:25;12.13;;;11.10;;
9964;SDS011;5023;53.554;9.964;2023-06-19T06:20:27;11.77;;;10.80;;
9964;SDS011;5023;53.554;9.964;2023-06-19T06:25:30;14.55;;;13.10;;
9964;SDS011;5023;53.554;9.964;2023-06-19T06:30:32;12.07;;;11.05;;
9964;SDS011;5023;53.554;9.964;2023-06-19T06:35:33;13.48;;;11.07;;
9964;SDS011;5023;53.554;9.964;2023-06-19T06:40:37;20.02;;;12.80;;
9964;SDS011;5023;53.554;9.964;2023-06-19T06:45:41;14.48;;;11.70;;
9964;SDS011;5023;53.554;9.964;2023-06-19T06:50:43;14.43;;;12.05;;
9964;SDS011;5023;53.554;9.964;2023-06-19T06:55:46;13.07;;;11.63;;
9964;SDS011;5023;53.554;9.964;2023-06-19T07:00:48;24.20;;;21.65;;
9964;SDS011;5023;53.554;9.964;2023-06-19T07:05:51;12.73;;;11.48;;
9964;SDS011;5023;53.554;9.964;2023-06-19T07:10:55;12.35;;;11.15;;
9964;SDS011;5023;53.554;9.964;2023-06-19T07:15:57;13.38;;;12.18;;
9964;SDS011;5023;53.554;9.964;2023-06-19T07:21:00;12.98;;;11.55;;
9964;SDS011;5023;53.554;9.964;2023-06-19T07:26:04;13.52;;;12.32;;
9964;SDS011;5023;53.554;9.964;2023-06-19T07:31:06;12.98;;;11.75;;
9964;SDS011;5023;53.554;9.964;2023-06-19T07:36:08;13.00;;;11.95;;
9964;SDS011;5023;53.554;9.964;2023-06-19T07:41:15;13.15;;;11.90;;
9964;SDS011;5023;53.554;9.964;2023-06-19T07:46:17;11.80;;;10.80;;
9964;SDS011;5023;53.554;9.964;2023-06-19T07:51:19;12.77;;;11.57;;
9964;SDS011;5023;53.554;9.964;2023-06-19T07:56:22;13.57;;;12.23;;
9964;SDS011;5023;53.554;9.964;2023-06-19T08:01:24;15.88;;;12.02;;
9964;SDS011;5023;53.554;9.964;2023-06-19T08:06:26;12.13;;;11.07;;
9964;SDS011;5023;53.554;9.964;2023-06-19T08:11:30;13.00;;;11.90;;
9964;SDS011;5023;53.554;9.964;2023-06-19T08:16:31;13.00;;;11.68;;
9964;SDS011;5023;53.554;9.964;2023-06-19T08:21:33;13.98;;;12.43;;
9964;SDS011;5023;53.554;9.964;2023-06-19T08:26:37;12.55;;;11.45;;
9964;SDS011;5023;53.554;9.964;2023-06-19T08:31:38;15.40;;;11.43;;
9964;SDS011;5023;53.554;9.964;2023-06-19T08:36:40;15.13;;;13.20;;
9964;SDS011;5023;53.554;9.964;2023-06-19T08:41:44;14.00;;;12.68;;
9964;SDS011;5023;53.554;9.964;2023-06-19T08:46:46;24.85;;;22.40;;
9964;SDS011;5023;53.554;9.964;2023-06-19T08:51:47;13.23;;;12.07;;
9964;SDS011;5023;53.554;9.964;2023-06-19T08:56:51;13.68;;;12.30;;
9964;SDS011;5023;53.554;9.964;2023-06-19T09:01:54;12.85;;;11.60;;
9964;SDS011;5023;53.554;9.964;2023-06-19T09:06:57;15.10;;;13.27;;
9964;SDS011;5023;53.554;9.964;2023-06-19T09:12:01;13.25;;;12.13;;
9964;SDS011;5023;53.554;9.964;2023-06-19T09:17:05;15.55;;;14.25;;
9964;SDS011;5023;53.554;9.964;2023-06-19T09:22:08;13.27;;;12.02;;
9964;SDS011;5023;53.554;9.964;2023-06-19T09:27:12;14.45;;;12.88;;
9964;SDS011;5023;53.554;9.964;2023-06-19T09:32:15;13.48;;;12.27;;
9964;SDS011;5023;53.554;9.964;2023-06-19T09:37:18;13.77;;;12.68;;
9964;SDS011;5023;53.554;9.964;2023-06-19T09:42:26;14.05;;;12.80;;
9964;SDS011;5023;53.554;9.964;2023-06-19T09:47:31;13.90;;;12.70;;
9964;SDS011;5023;53.554;9.964;2023-06-19T09:52:35;15.02;;;13.52;;
9964;SDS011;5023;53.554;9.964;2023-06-19T09:57:39;14.32;;;13.02;;
9964;SDS011;5023;53.554;9.964;2023-06-19T10:02:42;14.43;;;12.90;;
9964;SDS011;5023;53.554;9.964;2023-06-19T10:07:46;15.90;;;14.25;;
9964;SDS011;5023;53.554;9.964;2023-06-19T10:12:49;14.02;;;12.85;;
9964;SDS011;5023;53.554;9.964;2023-06-19T10:17:52;13.57;;;12.30;;
9964;SDS011;5023;53.554;9.964;2023-06-19T10:23:02;18.33;;;16.58;;
9964;SDS011;5023;53.554;9.964;2023-06-19T10:28:16;13.20;;;12.05;;
9964;SDS011;5023;53.554;9.964;2023-06-19T10:33:19;16.50;;;15.10;;
9964;SDS011;5023;53.554;9.964;2023-06-19T10:38:21;14.50;;;13.20;;
9964;SDS011;5023;53.554;9.964;2023-06-19T10:43:24;13.15;;;11.85;;
9964;SDS011;5023;53.554;9.964;2023-06-19T10:48:31;11.57;;;10.57;;
9964;SDS011;5023;53.554;9.964;2023-06-19T10:53:33;13.88;;;12.80;;
9964;SDS011;5023;53.554;9.964;2023-06-19T10:58:37;18.35;;;16.50;;
9964;SDS011;5023;53.554;9.964;2023-06-19T11:03:38;12.73;;;11.70;;
9964;SDS011;5023;53.554;9.964;2023-06-19T11:08:41;11.13;;;10.18;;
9964;SDS011;5023;53.554;9.964;2023-06-19T11:13:53;10.82;;;9.93;;
9964;SDS011;5023;53.554;9.964;2023-06-19T11:18:55;10.30;;;9.40;;
9964;SDS011;5023;53.554;9.964;2023-06-19T11:23:57;10.70;;;9.77;;
9964;SDS011;5023;53.554;9.964;2023-06-19T11:29:01;9.00;;;8.25;;
9964;SDS011;5023;53.554;9.964;2023-06-19T11:34:04;10.63;;;9.75;;
9964;SDS011;5023;53.554;9.964;2023-06-19T11:39:08;9.63;;;8.77;;
9964;SDS011;5023;53.554;9.964;2023-06-19T11:44:14;8.35;;;7.57;;
9964;SDS011;5023;53.554;9.964;2023-06-19T11:49:16;9.20;;;8.50;;
9964;SDS011;5023;53.554;9.964;2023-06-19T11:54:19;10.07;;;9.23;;
9964;SDS011;5023;53.554;9.964;2023-06-19T11:59:22;8.70;;;8.00;;
9964;SDS011;5023;53.554;9.964;2023-06-19T12:04:24;8.73;;;7.93;;
9964;SDS011;5023;53.554;9.964;2023-06-19T12:09:27;8.40;;;7.70;;
9964;SDS011;5023;53.554;9.964;2023-06-19T12:14:30;7.90;;;7.28;;
9964;SDS011;5023;53.554;9.964;2023-06-19T12:19:32;8.82;;;8.05;;
9964;SDS011;5023;53.554;9.964;2023-06-19T12:24:34;9.55;;;8.65;;
9964;SDS011;5023;53.554;9.964;2023-06-19T12:29:37;9.55;;;8.15;;
9964;SDS011;5023;53.554;9.964;2023-06-19T12:34:39;8.38;;;7.57;;
9964;SDS011;5023;53.554;9.964;2023-06-19T12:39:46;8.70;;;7.47;;
9964;SDS011;5023;53.554;9.964;2023-06-19T12:44:49;7.97;;;7.25;;
9964;SDS011;5023;53.554;9.964;2023-06-19T12:49:52;6.70;;;6.20;;
9964;SDS011;5023;53.554;9.964;2023-06-19T12:54:54;8.45;;;7.47;;
9964;SDS011;5023;53.554;9.964;2023-06-19T12:59:58;8.25;;;6.90;;
9964;SDS011;5023;53.554;9.964;2023-06-19T13:05:00;7.32;;;6.72;;
9964;SDS011;5023;53.554;9.964;2023-06-19T13:10:02;8.65;;;6.75;;
9964;SDS011;5023;53.554;9.964;2023-06-19T13:15:08;6.40;;;5.90;;
9964;SDS011;5023;53.554;9.964;2023-06-19T13:20:10;6.10;;;5.60;;
9964;SDS011;5023;53.554;9.964;2023-06-19T13:25:14;6.75;;;5.70;;
9964;SDS011;5023;53.554;9.964;2023-06-19T13:30:17;6.78;;;6.25;;
9964;SDS011;5023;53.554;9.964;2023-06-19T13:35:19;6.90;;;6.22;;
9964;SDS011;5023;53.554;9.964;2023-06-19T13:40:21;7.32;;;6.80;;
9964;SDS011;5023;53.554;9.964;2023-06-19T13:45:25;7.00;;;6.45;;
9964;SDS011;5023;53.554;9.964;2023-06-19T13:50:27;7.63;;;6.80;;
9964;SDS011;5023;53.554;9.964;2023-06-19T13:55:29;7.05;;;6.55;;
9964;SDS011;5023;53.554;9.964;2023-06-19T14:00:32;6.70;;;5.95;;
9964;SDS011;5023;53.554;9.964;2023-06-19T14:05:36;6.38;;;5.88;;
9964;SDS011;5023;53.554;9.964;2023-06-19T14:10:38;6.38;;;5.78;;
9964;SDS011;5023;53.554;9.964;2023-06-19T14:15:42;6.07;;;5.68;;
9964;SDS011;5023;53.554;9.964;2023-06-19T14:20:44;6.53;;;5.93;;
9964;SDS011;5023;53.554;9.964;2023-06-19T14:25:46;6.43;;;5.82;;
9964;SDS011;5023;53.554;9.964;2023-06-19T14:30:49;6.38;;;5.88;;
9964;SDS011;5023;53.554;9.964;2023-06-19T14:35:51;6.68;;;6.07;;
9964;SDS011;5023;53.554;9.964;2023-06-19T14:40:53;5.80;;;5.40;;
9964;SDS011;5023;53.554;9.964;2023-06-19T14:45:58;5.78;;;5.47;;
9964;SDS011;5023;53.554;9.964;2023-06-19T14:51:00;6.65;;;6.05;;
9964;SDS011;5023;53.554;9.964;2023-06-19T14:56:04;6.45;;;5.90;;
9964;SDS011;5023;53.554;9.964;2023-06-19T15:01:08;6.47;;;5.97;;
9964;SDS011;5023;53.554;9.964;2023-06-19T15:06:10;5.90;;;5.50;;
9964;SDS011;5023;53.554;9.964;2023-06-19T15:11:12;6.35;;;5.95;;
9964;SDS011;5023;53.554;9.964;2023-06-19T15:16:16;6.13;;;5.63;;
9964;SDS011;5023;53.554;9.964;2023-06-19T15:21:19;5.93;;;5.43;;
9964;SDS011;5023;53.554;9.964;2023-06-19T15:26:22;6.10;;;5.57;;
9964;SDS011;5023;53.554;9.964;2023-06-19T15:31:26;6.20;;;5.50;;
9964;SDS011;5023;53.554;9.964;2023-06-19T15:36:28;6.03;;;5.43;;
9964;SDS011;5023;53.554;9.964;2023-06-19T15:41:30;5.97;;;5.35;;
9964;SDS011;5023;53.554;9.964;2023-06-19T15:46:33;5.25;;;4.90;;
9964;SDS011;5023;53.554;9.964;2023-06-19T15:51:35;5.32;;;5.00;;
9964;SDS011;5023;53.554;9.964;2023-06-19T15:56:37;6.32;;;5.72;;
9964;SDS011;5023;53.554;9.964;2023-06-19T16:01:43;7.22;;;6.53;;
9964;SDS011;5023;53.554;9.964;2023-06-19T16:06:45;6.93;;;5.90;;
9964;SDS011;5023;53.554;9.964;2023-06-19T16:11:47;6.60;;;6.05;;
9964;SDS011;5023;53.554;9.964;2023-06-19T16:16:52;10.00;;;9.20;;
9964;SDS011;5023;53.554;9.964;2023-06-19T16:21:54;6.25;;;5.70;;
9964;SDS011;5023;53.554;9.964;2023-06-19T16:26:56;7.13;;;6.50;;
9964;SDS011;5023;53.554;9.964;2023-06-19T16:31:59;7.70;;;6.15;;
9964;SDS011;5023;53.554;9.964;2023-06-19T16:37:01;11.95;;;10.95;;
9964;SDS011;5023;53.554;9.964;2023-06-19T16:42:04;6.93;;;6.25;;
9964;SDS011;5023;53.554;9.964;2023-06-19T16:47:08;5.95;;;5.45;;
9964;SDS011;5023;53.554;9.964;2023-06-19T16:52:10;6.43;;;5.93;;
9964;SDS011;5023;53.554;9.964;2023-06-19T16:57:12;10.65;;;8.65;;
9964;SDS011;5023;53.554;9.964;2023-06-19T17:02:15;5.90;;;5.50;;
9964;SDS011;5023;53.554;9.964;2023-06-19T17:07:17;7.53;;;6.95;;
9964;SDS011;5023;53.554;9.964;2023-06-19T17:12:19;9.00;;;8.10;;
9964;SDS011;5023;53.554;9.964;2023-06-19T17:17:22;7.70;;;7.15;;
9964;SDS011;5023;53.554;9.964;2023-06-19T17:22:24;11.90;;;7.53;;
9964;SDS011;5023;53.554;9.964;2023-06-19T17:27:26;5.72;;;5.28;;
9964;SDS011;5023;53.554;9.964;2023-06-19T17:32:30;6.47;;;5.88;;
9964;SDS011;5023;53.554;9.964;2023-06-19T17:37:33;6.93;;;6.43;;
9964;SDS011;5023;53.554;9.964;2023-06-19T17:42:36;6.80;;;6.20;;
9964;SDS011;5023;53.554;9.964;2023-06-19T17:47:41;8.13;;;7.43;;
9964;SDS011;5023;53.554;9.964;2023-06-19T17:52:43;8.18;;;7.57;;
9964;SDS011;5023;53.554;9.964;2023-06-19T17:57:45;6.93;;;6.50;;
9964;SDS011;5023;53.554;9.964;2023-06-19T18:02:49;7.53;;;6.93;;
9964;SDS011;5023;53.554;9.964;2023-06-19T18:07:53;8.38;;;7.60;;
9964;SDS011;5023;53.554;9.964;2023-06-19T18:12:55;11.20;;;10.10;;
9964;SDS011;5023;53.554;9.964;2023-06-19T18:17:59;8.35;;;7.65;;
9964;SDS011;5023;53.554;9.964;2023-06-19T18:23:01;9.40;;;8.60;;
9964;SDS011;5023;53.554;9.964;2023-06-19T18:28:03;13.20;;;12.05;;
9964;SDS011;5023;53.554;9.964;2023-06-19T18:33:06;10.23;;;8.23;;
9964;SDS011;5023;53.554;9.964;2023-06-19T18:38:08;7.22;;;6.63;;
9964;SDS011;5023;53.554;9.964;2023-06-19T18:43:13;11.23;;;10.18;;
9964;SDS011;5023;53.554;9.964;2023-06-19T18:48:17;10.15;;;9.18;;
9964;SDS011;5023;53.554;9.964;2023-06-19T18:53:19;7.03;;;6.40;;
9964;SDS011;5023;53.554;9.964;2023-06-19T18:58:21;6.93;;;6.32;;
9964;SDS011;5023;53.554;9.964;2023-06-19T19:03:25;13.80;;;12.50;;
9964;SDS011;5023;53.554;9.964;2023-06-19T19:08:27;7.90;;;7.05;;
9964;SDS011;5023;53.554;9.964;2023-06-19T19:13:29;7.53;;;6.82;;
9964;SDS011;5023;53.554;9.964;2023-06-19T19:18:32;11.27;;;10.18;;
9964;SDS011;5023;53.554;9.964;2023-06-19T19:23:34;10.95;;;7.65;;
9964;SDS011;5023;53.554;9.964;2023-06-19T19:28:36;8.82;;;7.97;;
9964;SDS011;5023;53.554;9.964;2023-06-19T19:33:39;10.48;;;9.25;;
9964;SDS011;5023;53.554;9.964;2023-06-19T19:38:41;9.75;;;8.85;;
9964;SDS011;5023;53.554;9.964;2023-06-19T19:43:43;8.38;;;7.65;;
9964;SDS011;5023;53.554;9.964;2023-06-19T19:48:47;8.75;;;8.05;;
9964;SDS011;5023;53.554;9.964;2023-06-19T19:53:48;10.27;;;9.32;;
9964;SDS011;5023;53.554;9.964;2023-06-19T19:58:50;8.98;;;8.18;;
9964;SDS011;5023;53.554;9.964;2023-06-19T20:03:54;17.95;;;16.17;;
9964;SDS011;5023;53.554;9.964;2023-06-19T20:08:56;8.88;;;8.07;;
9964;SDS011;5023;53.554;9.964;2023-06-19T20:13:57;10.75;;;9.52;;
9964;SDS011;5023;53.554;9.964;2023-06-19T20:19:01;9.80;;;8.85;;
9964;SDS011;5023;53.554;9.964;2023-06-19T20:24:06;12.32;;;11.23;;
9964;SDS011;5023;53.554;9.964;2023-06-19T20:29:08;14.38;;;12.82;;
9964;SDS011;5023;53.554;9.964;2023-06-19T20:34:11;10.55;;;9.45;;
9964;SDS011;5023;53.554;9.964;2023-06-19T20:39:13;29.17;;;26.17;;
9964;SDS011;5023;53.554;9.964;2023-06-19T20:44:15;12.40;;;9.95;;
9964;SDS011;5023;53.554;9.964;2023-06-19T20:49:19;10.50;;;9.40;;
9964;SDS011;5023;53.554;9.964;2023-06-19T20:54:21;10.82;;;9.73;;
9964;SDS011;5023;53.554;9.964;2023-06-19T20:59:23;11.00;;;10.02;;
9964;SDS011;5023;53.554;9.964;2023-06-19T21:04:26;11.55;;;10.40;;
9964;SDS011;5023;53.554;9.964;2023-06-19T21:09:28;17.25;;;15.50;;
9964;SDS011;5023;53.554;9.964;2023-06-19T21:14:30;13.98;;;12.63;;
9964;SDS011;5023;53.554;9.964;2023-06-19T21:19:34;13.70;;;12.07;;
9964;SDS011;5023;53.554;9.964;2023-06-19T21:24:36;28.15;;;25.27;;
9964;SDS011;5023;53.554;9.964;2023-06-19T21:29:38;17.05;;;15.43;;
9964;SDS011;5023;53.554;9.964;2023-06-19T21:34:41;20.90;;;18.88;;
9964;SDS011;5023;53.554;9.964;2023-06-19T21:39:45;21.73;;;19.75;;
9964;SDS011;5023;53.554;9.964;2023-06-19T21:44:47;18.38;;;16.45;;
9964;SDS011;5023;53.554;9.964;2023-06-19T21:49:50;13.27;;;11.93;;
9964;SDS011;5023;53.554;9.964;2023-06-19T21:54:52;13.18;;;11.93;;
9964;SDS011;5023;53.554;9.964;2023-06-19T21:59:54;14.80;;;12.95;;
9964;SDS011;5023;53.554;9.964;2023-06-19T22:04:57;14.13;;;12.68;;
9964;SDS011;5023;53.554;9.964;2023-06-19T22:10:00;11.85;;;10.52;;
9964;SDS011;5023;53.554;9.964;2023-06-19T22:15:03;11.98;;;10.77;;
9964;SDS011;5023;53.554;9.964;2023-06-19T22:20:07;13.30;;;11.90;;
9964;SDS011;5023;53.554;9.964;2023-06-19T22:25:10;12.52;;;11.32;;
9964;SDS011;5023;53.554;9.964;2023-06-19T22:30:12;12.20;;;10.70;;
9964;SDS011;5023;53.554;9.964;2023-06-19T22:35:17;12.18;;;10.45;;
9964;SDS011;5023;53.554;9.964;2023-06-19T22:40:19;12.52;;;10.82;;
9964;SDS011;5023;53.554;9.964;2023-06-19T22:45:21;11.63;;;10.52;;
9964;SDS011;5023;53.554;9.964;2023-06-19T22:50:24;12.05;;;11.02;;
9964;SDS011;5023;53.554;9.964;2023-06-19T22:55:26;15.88;;;14.38;;
9964;SDS011;5023;53.554;9.964;2023-06-19T23:00:28;12.15;;;10.88;;
9964;SDS011;5023;53.554;9.964;2023-06-19T23:05:32;11.88;;;10.77;;
9964;SDS011;5023;53.554;9.964;2023-06-19T23:10:34;11.60;;;10.45;;
9964;SDS011;5023;53.554;9.964;2023-06-19T23:15:36;15.15;;;13.75;;
9964;SDS011;5023;53.554;9.964;2023-06-19T23:20:39;12.52;;;11.35;;
9964;SDS011;5023;53.554;9.964;2023-06-19T23:25:41;11.55;;;9.93;;
9964;SDS011;5023;53.554;9.964;2023-06-19T23:30:44;12.15;;;10.70;;
9964;SDS011;5023;53.554;9.964;2023-06-19T23:35:48;10.70;;;9.80;;
9964;SDS011;5023;53.554;9.964;2023-06-19T23:40:50;10.10;;;9.07;;
9964;SDS011;5023;53.554;9.964;2023-06-19T23:45:52;10.70;;;9.65;;
9964;SDS011;5023;53.554;9.964;2023-06-19T23:50:55;10.60;;;9.60;;
9964;SDS011;5023;53.554;9.964;2023-06-19T23:55:57;11.68;;;9.98;;
